sensor_id;sensor_type;location;lat;lon;timestamp;P1;durP1;ratioP1;P2;durP2;ratioP2
54307;SDS011;40208;39.778;2.710;2023-07-09T00:02:03;25.38;;;8.32;;
54307;SDS011;40208;39.778;2.710;2023-07-09T00:04:48;22.55;;;7.72;;
54307;SDS011;40208;39.778;2.710;2023-07-09T00:07:33;22.58;;;7.88;;
54307;SDS011;40208;39.778;2.710;2023-07-09T00:10:18;27.38;;;8.50;;
54307;SDS011;40208;39.778;2.710;2023-07-09T00:13:04;21.02;;;8.90;;
54307;SDS011;40208;39.778;2.710;2023-07-09T00:15:49;17.80;;;8.70;;
54307;SDS011;40208;39.778;2.710;2023-07-09T00:18:34;23.80;;;8.82;;
54307;SDS011;40208;39.778;2.710;2023-07-09T00:21:20;23.33;;;8.50;;
54307;SDS011;40208;39.778;2.710;2023-07-09T00:24:05;19.58;;;8.30;;
54307;SDS011;40208;39.778;2.710;2023-07-09T00:26:50;27.75;;;8.68;;
54307;SDS011;40208;39.778;2.710;2023-07-09T00:29:35;24.63;;;8.80;;
54307;SDS011;40208;39.778;2.710;2023-07-09T00:32:20;19.00;;;8.02;;
54307;SDS011;40208;39.778;2.710;2023-07-09T00:35:05;21.92;;;8.38;;
54307;SDS011;40208;39.778;2.710;2023-07-09T00:37:51;23.33;;;7.72;;
54307;SDS011;40208;39.778;2.710;2023-07-09T00:40:35;20.70;;;7.57;;
54307;SDS011;40208;39.778;2.710;2023-07-09T00:43:20;22.55;;;7.60;;
54307;SDS011;40208;39.778;2.710;2023-07-09T00:49:29;22.13;;;8.48;;
54307;SDS011;40208;39.778;2.710;2023-07-09T00:55:15;22.35;;;7.68;;
54307;SDS011;40208;39.778;2.710;2023-07-09T01:00:50;21.77;;;8.25;;
54307;SDS011;40208;39.778;2.710;2023-07-09T01:03:45;30.15;;;9.75;;
54307;SDS011;40208;39.778;2.710;2023-07-09T01:06:53;20.38;;;8.75;;
54307;SDS011;40208;39.778;2.710;2023-07-09T01:09:38;22.10;;;8.20;;
54307;SDS011;40208;39.778;2.710;2023-07-09T01:12:25;21.02;;;8.45;;
54307;SDS011;40208;39.778;2.710;2023-07-09T01:15:10;24.33;;;9.45;;
54307;SDS011;40208;39.778;2.710;2023-07-09T01:17:55;17.58;;;8.02;;
54307;SDS011;40208;39.778;2.710;2023-07-09T01:20:40;17.05;;;8.00;;
54307;SDS011;40208;39.778;2.710;2023-07-09T01:23:25;20.15;;;8.18;;
54307;SDS011;40208;39.778;2.710;2023-07-09T01:26:22;23.85;;;8.75;;
54307;SDS011;40208;39.778;2.710;2023-07-09T01:29:11;23.65;;;8.80;;
54307;SDS011;40208;39.778;2.710;2023-07-09T01:31:56;24.95;;;9.15;;
54307;SDS011;40208;39.778;2.710;2023-07-09T01:34:41;18.38;;;7.38;;
54307;SDS011;40208;39.778;2.710;2023-07-09T01:37:27;18.73;;;8.70;;
54307;SDS011;40208;39.778;2.710;2023-07-09T01:40:13;26.05;;;9.57;;
54307;SDS011;40208;39.778;2.710;2023-07-09T01:43:00;30.88;;;9.57;;
54307;SDS011;40208;39.778;2.710;2023-07-09T01:45:46;21.17;;;7.78;;
54307;SDS011;40208;39.778;2.710;2023-07-09T01:48:34;25.73;;;8.80;;
54307;SDS011;40208;39.778;2.710;2023-07-09T01:51:25;32.17;;;9.65;;
54307;SDS011;40208;39.778;2.710;2023-07-09T01:54:12;17.23;;;8.18;;
54307;SDS011;40208;39.778;2.710;2023-07-09T02:00:17;22.65;;;7.75;;
54307;SDS011;40208;39.778;2.710;2023-07-09T02:03:03;21.00;;;9.02;;
54307;SDS011;40208;39.778;2.710;2023-07-09T02:05:48;22.83;;;8.45;;
54307;SDS011;40208;39.778;2.710;2023-07-09T02:08:35;19.98;;;9.02;;
54307;SDS011;40208;39.778;2.710;2023-07-09T02:11:20;22.60;;;8.30;;
54307;SDS011;40208;39.778;2.710;2023-07-09T02:14:05;24.00;;;8.50;;
54307;SDS011;40208;39.778;2.710;2023-07-09T02:16:50;22.75;;;8.18;;
54307;SDS011;40208;39.778;2.710;2023-07-09T02:19:35;25.67;;;8.23;;
54307;SDS011;40208;39.778;2.710;2023-07-09T02:22:20;19.35;;;8.15;;
54307;SDS011;40208;39.778;2.710;2023-07-09T02:25:05;28.52;;;8.73;;
54307;SDS011;40208;39.778;2.710;2023-07-09T02:27:51;22.15;;;8.48;;
54307;SDS011;40208;39.778;2.710;2023-07-09T02:30:36;22.85;;;8.57;;
54307;SDS011;40208;39.778;2.710;2023-07-09T02:33:20;26.63;;;8.77;;
54307;SDS011;40208;39.778;2.710;2023-07-09T02:36:08;15.00;;;7.72;;
54307;SDS011;40208;39.778;2.710;2023-07-09T02:38:52;23.17;;;8.40;;
54307;SDS011;40208;39.778;2.710;2023-07-09T02:41:37;22.35;;;8.80;;
54307;SDS011;40208;39.778;2.710;2023-07-09T02:44:22;22.83;;;7.65;;
54307;SDS011;40208;39.778;2.710;2023-07-09T02:47:07;19.98;;;8.05;;
54307;SDS011;40208;39.778;2.710;2023-07-09T02:49:52;25.17;;;7.90;;
54307;SDS011;40208;39.778;2.710;2023-07-09T02:52:37;20.92;;;8.30;;
54307;SDS011;40208;39.778;2.710;2023-07-09T02:55:24;20.40;;;7.60;;
54307;SDS011;40208;39.778;2.710;2023-07-09T02:58:09;21.63;;;7.90;;
54307;SDS011;40208;39.778;2.710;2023-07-09T03:00:54;22.65;;;8.05;;
54307;SDS011;40208;39.778;2.710;2023-07-09T03:03:39;20.15;;;8.27;;
54307;SDS011;40208;39.778;2.710;2023-07-09T03:06:24;20.90;;;8.35;;
54307;SDS011;40208;39.778;2.710;2023-07-09T03:09:09;21.92;;;9.00;;
54307;SDS011;40208;39.778;2.710;2023-07-09T03:11:54;21.67;;;7.47;;
54307;SDS011;40208;39.778;2.710;2023-07-09T03:14:39;19.58;;;7.90;;
54307;SDS011;40208;39.778;2.710;2023-07-09T03:17:23;21.02;;;8.52;;
54307;SDS011;40208;39.778;2.710;2023-07-09T03:20:08;21.73;;;9.25;;
54307;SDS011;40208;39.778;2.710;2023-07-09T03:22:54;27.02;;;9.15;;
54307;SDS011;40208;39.778;2.710;2023-07-09T03:25:42;28.08;;;8.77;;
54307;SDS011;40208;39.778;2.710;2023-07-09T03:28:29;22.10;;;8.98;;
54307;SDS011;40208;39.778;2.710;2023-07-09T03:31:16;20.03;;;8.30;;
54307;SDS011;40208;39.778;2.710;2023-07-09T03:34:01;26.05;;;9.50;;
54307;SDS011;40208;39.778;2.710;2023-07-09T03:36:47;23.67;;;8.95;;
54307;SDS011;40208;39.778;2.710;2023-07-09T03:39:31;22.23;;;8.57;;
54307;SDS011;40208;39.778;2.710;2023-07-09T03:42:16;23.92;;;8.82;;
54307;SDS011;40208;39.778;2.710;2023-07-09T03:45:01;23.02;;;8.52;;
54307;SDS011;40208;39.778;2.710;2023-07-09T03:47:46;28.20;;;8.77;;
54307;SDS011;40208;39.778;2.710;2023-07-09T03:50:30;31.50;;;9.63;;
54307;SDS011;40208;39.778;2.710;2023-07-09T03:53:16;22.52;;;8.45;;
54307;SDS011;40208;39.778;2.710;2023-07-09T03:56:01;21.88;;;8.35;;
54307;SDS011;40208;39.778;2.710;2023-07-09T03:58:46;25.85;;;8.82;;
54307;SDS011;40208;39.778;2.710;2023-07-09T04:01:31;25.13;;;8.35;;
54307;SDS011;40208;39.778;2.710;2023-07-09T04:04:16;19.42;;;8.48;;
54307;SDS011;40208;39.778;2.710;2023-07-09T04:07:04;23.00;;;9.32;;
54307;SDS011;40208;39.778;2.710;2023-07-09T04:09:49;25.67;;;9.27;;
54307;SDS011;40208;39.778;2.710;2023-07-09T04:12:34;26.45;;;8.27;;
54307;SDS011;40208;39.778;2.710;2023-07-09T04:15:19;24.88;;;8.68;;
54307;SDS011;40208;39.778;2.710;2023-07-09T04:18:04;35.80;;;8.95;;
54307;SDS011;40208;39.778;2.710;2023-07-09T04:20:49;26.05;;;8.82;;
54307;SDS011;40208;39.778;2.710;2023-07-09T04:23:34;24.77;;;9.02;;
54307;SDS011;40208;39.778;2.710;2023-07-09T04:26:18;23.23;;;8.55;;
54307;SDS011;40208;39.778;2.710;2023-07-09T04:29:03;34.50;;;9.15;;
54307;SDS011;40208;39.778;2.710;2023-07-09T04:31:48;25.35;;;8.45;;
54307;SDS011;40208;39.778;2.710;2023-07-09T04:34:33;20.25;;;7.82;;
54307;SDS011;40208;39.778;2.710;2023-07-09T04:37:18;20.25;;;8.02;;
54307;SDS011;40208;39.778;2.710;2023-07-09T04:40:03;25.48;;;8.88;;
54307;SDS011;40208;39.778;2.710;2023-07-09T04:42:51;24.63;;;8.52;;
54307;SDS011;40208;39.778;2.710;2023-07-09T04:45:36;23.30;;;7.75;;
54307;SDS011;40208;39.778;2.710;2023-07-09T04:48:21;27.50;;;7.85;;
54307;SDS011;40208;39.778;2.710;2023-07-09T04:51:05;33.17;;;9.50;;
54307;SDS011;40208;39.778;2.710;2023-07-09T04:53:50;25.58;;;8.25;;
54307;SDS011;40208;39.778;2.710;2023-07-09T04:56:38;27.98;;;8.15;;
54307;SDS011;40208;39.778;2.710;2023-07-09T04:59:23;28.35;;;8.70;;
54307;SDS011;40208;39.778;2.710;2023-07-09T05:02:08;33.33;;;9.35;;
54307;SDS011;40208;39.778;2.710;2023-07-09T05:04:53;26.35;;;8.15;;
54307;SDS011;40208;39.778;2.710;2023-07-09T05:07:38;26.23;;;8.07;;
54307;SDS011;40208;39.778;2.710;2023-07-09T05:10:23;29.40;;;7.97;;
54307;SDS011;40208;39.778;2.710;2023-07-09T05:13:07;30.30;;;9.52;;
54307;SDS011;40208;39.778;2.710;2023-07-09T05:15:53;31.63;;;9.55;;
54307;SDS011;40208;39.778;2.710;2023-07-09T05:18:38;33.30;;;8.50;;
54307;SDS011;40208;39.778;2.710;2023-07-09T05:21:22;28.98;;;9.07;;
54307;SDS011;40208;39.778;2.710;2023-07-09T05:24:07;24.77;;;8.18;;
54307;SDS011;40208;39.778;2.710;2023-07-09T05:26:52;24.58;;;8.45;;
54307;SDS011;40208;39.778;2.710;2023-07-09T05:29:37;30.13;;;8.50;;
54307;SDS011;40208;39.778;2.710;2023-07-09T05:32:22;24.85;;;8.10;;
54307;SDS011;40208;39.778;2.710;2023-07-09T05:35:07;34.72;;;8.18;;
54307;SDS011;40208;39.778;2.710;2023-07-09T05:37:52;23.02;;;8.82;;
54307;SDS011;40208;39.778;2.710;2023-07-09T05:40:39;26.08;;;8.50;;
54307;SDS011;40208;39.778;2.710;2023-07-09T05:43:24;74.55;;;30.50;;
54307;SDS011;40208;39.778;2.710;2023-07-09T05:46:09;77.78;;;24.45;;
54307;SDS011;40208;39.778;2.710;2023-07-09T05:48:55;40.20;;;15.18;;
54307;SDS011;40208;39.778;2.710;2023-07-09T05:51:40;31.40;;;9.98;;
54307;SDS011;40208;39.778;2.710;2023-07-09T05:54:25;30.70;;;9.68;;
54307;SDS011;40208;39.778;2.710;2023-07-09T05:57:10;31.60;;;9.32;;
54307;SDS011;40208;39.778;2.710;2023-07-09T05:59:55;24.60;;;8.70;;
54307;SDS011;40208;39.778;2.710;2023-07-09T06:02:40;23.98;;;8.95;;
54307;SDS011;40208;39.778;2.710;2023-07-09T06:05:24;30.25;;;8.25;;
54307;SDS011;40208;39.778;2.710;2023-07-09T06:08:09;19.15;;;7.57;;
54307;SDS011;40208;39.778;2.710;2023-07-09T06:11:00;28.65;;;8.50;;
54307;SDS011;40208;39.778;2.710;2023-07-09T06:13:46;30.83;;;8.98;;
54307;SDS011;40208;39.778;2.710;2023-07-09T06:16:32;21.33;;;8.15;;
54307;SDS011;40208;39.778;2.710;2023-07-09T06:19:17;21.52;;;8.07;;
54307;SDS011;40208;39.778;2.710;2023-07-09T06:22:02;24.77;;;8.48;;
54307;SDS011;40208;39.778;2.710;2023-07-09T06:24:46;32.70;;;8.73;;
54307;SDS011;40208;39.778;2.710;2023-07-09T06:27:31;29.70;;;7.82;;
54307;SDS011;40208;39.778;2.710;2023-07-09T06:30:16;25.48;;;7.68;;
54307;SDS011;40208;39.778;2.710;2023-07-09T06:33:03;27.40;;;8.05;;
54307;SDS011;40208;39.778;2.710;2023-07-09T06:35:49;22.50;;;7.28;;
54307;SDS011;40208;39.778;2.710;2023-07-09T06:38:36;24.88;;;8.20;;
54307;SDS011;40208;39.778;2.710;2023-07-09T06:41:21;27.00;;;8.90;;
54307;SDS011;40208;39.778;2.710;2023-07-09T06:44:08;27.70;;;8.15;;
54307;SDS011;40208;39.778;2.710;2023-07-09T06:46:53;22.88;;;7.45;;
54307;SDS011;40208;39.778;2.710;2023-07-09T06:49:38;27.98;;;7.53;;
54307;SDS011;40208;39.778;2.710;2023-07-09T06:52:23;30.13;;;7.80;;
54307;SDS011;40208;39.778;2.710;2023-07-09T06:55:08;28.85;;;7.88;;
54307;SDS011;40208;39.778;2.710;2023-07-09T06:57:53;20.23;;;7.38;;
54307;SDS011;40208;39.778;2.710;2023-07-09T07:00:38;24.08;;;8.18;;
54307;SDS011;40208;39.778;2.710;2023-07-09T07:03:23;24.13;;;7.63;;
54307;SDS011;40208;39.778;2.710;2023-07-09T07:06:09;24.45;;;8.55;;
54307;SDS011;40208;39.778;2.710;2023-07-09T07:08:54;25.70;;;9.43;;
54307;SDS011;40208;39.778;2.710;2023-07-09T07:11:41;22.98;;;7.55;;
54307;SDS011;40208;39.778;2.710;2023-07-09T07:14:26;31.20;;;7.22;;
54307;SDS011;40208;39.778;2.710;2023-07-09T07:17:15;23.55;;;8.07;;
54307;SDS011;40208;39.778;2.710;2023-07-09T07:20:03;26.70;;;7.85;;
54307;SDS011;40208;39.778;2.710;2023-07-09T07:22:48;28.92;;;7.72;;
54307;SDS011;40208;39.778;2.710;2023-07-09T07:25:33;21.35;;;7.75;;
54307;SDS011;40208;39.778;2.710;2023-07-09T07:28:18;22.00;;;7.75;;
54307;SDS011;40208;39.778;2.710;2023-07-09T07:31:04;16.88;;;6.70;;
54307;SDS011;40208;39.778;2.710;2023-07-09T07:33:51;22.02;;;7.13;;
54307;SDS011;40208;39.778;2.710;2023-07-09T07:36:36;29.63;;;8.38;;
54307;SDS011;40208;39.778;2.710;2023-07-09T07:39:21;32.33;;;10.93;;
54307;SDS011;40208;39.778;2.710;2023-07-09T07:42:06;36.08;;;10.45;;
54307;SDS011;40208;39.778;2.710;2023-07-09T07:44:51;22.55;;;9.25;;
54307;SDS011;40208;39.778;2.710;2023-07-09T07:47:36;21.10;;;7.63;;
54307;SDS011;40208;39.778;2.710;2023-07-09T07:50:21;25.90;;;9.38;;
54307;SDS011;40208;39.778;2.710;2023-07-09T07:53:06;18.35;;;7.78;;
54307;SDS011;40208;39.778;2.710;2023-07-09T07:55:55;25.23;;;7.85;;
54307;SDS011;40208;39.778;2.710;2023-07-09T07:58:40;19.38;;;6.78;;
54307;SDS011;40208;39.778;2.710;2023-07-09T08:01:25;45.65;;;10.23;;
54307;SDS011;40208;39.778;2.710;2023-07-09T08:04:10;25.05;;;8.93;;
54307;SDS011;40208;39.778;2.710;2023-07-09T08:06:55;31.48;;;7.88;;
54307;SDS011;40208;39.778;2.710;2023-07-09T08:09:40;32.60;;;10.30;;
54307;SDS011;40208;39.778;2.710;2023-07-09T08:12:25;35.95;;;13.13;;
54307;SDS011;40208;39.778;2.710;2023-07-09T08:15:10;28.23;;;10.25;;
54307;SDS011;40208;39.778;2.710;2023-07-09T08:17:55;22.02;;;8.15;;
54307;SDS011;40208;39.778;2.710;2023-07-09T08:20:42;35.50;;;10.57;;
54307;SDS011;40208;39.778;2.710;2023-07-09T08:23:29;44.87;;;14.27;;
54307;SDS011;40208;39.778;2.710;2023-07-09T08:26:14;37.10;;;12.95;;
54307;SDS011;40208;39.778;2.710;2023-07-09T08:28:58;33.15;;;11.52;;
54307;SDS011;40208;39.778;2.710;2023-07-09T08:31:43;39.35;;;11.02;;
54307;SDS011;40208;39.778;2.710;2023-07-09T08:34:28;38.13;;;10.60;;
54307;SDS011;40208;39.778;2.710;2023-07-09T08:37:13;33.92;;;10.40;;
54307;SDS011;40208;39.778;2.710;2023-07-09T08:40:00;26.17;;;8.40;;
54307;SDS011;40208;39.778;2.710;2023-07-09T08:42:46;19.42;;;7.53;;
54307;SDS011;40208;39.778;2.710;2023-07-09T08:45:48;27.02;;;7.75;;
54307;SDS011;40208;39.778;2.710;2023-07-09T08:48:39;16.48;;;7.03;;
54307;SDS011;40208;39.778;2.710;2023-07-09T08:51:33;22.13;;;8.10;;
54307;SDS011;40208;39.778;2.710;2023-07-09T08:54:28;37.50;;;8.07;;
54307;SDS011;40208;39.778;2.710;2023-07-09T08:57:21;19.10;;;7.15;;
54307;SDS011;40208;39.778;2.710;2023-07-09T09:06:25;24.27;;;7.05;;
54307;SDS011;40208;39.778;2.710;2023-07-09T09:12:25;22.15;;;7.70;;
54307;SDS011;40208;39.778;2.710;2023-07-09T09:22:17;53.80;;;17.10;;
54307;SDS011;40208;39.778;2.710;2023-07-09T09:25:23;26.90;;;9.70;;
54307;SDS011;40208;39.778;2.710;2023-07-09T09:28:17;22.70;;;9.02;;
54307;SDS011;40208;39.778;2.710;2023-07-09T09:34:00;24.90;;;8.68;;
54307;SDS011;40208;39.778;2.710;2023-07-09T09:36:54;22.08;;;7.80;;
54307;SDS011;40208;39.778;2.710;2023-07-09T09:39:40;21.77;;;9.23;;
54307;SDS011;40208;39.778;2.710;2023-07-09T09:46:21;23.70;;;7.95;;
54307;SDS011;40208;39.778;2.710;2023-07-09T09:49:01;23.17;;;7.55;;
54307;SDS011;40208;39.778;2.710;2023-07-09T09:51:55;29.30;;;10.15;;
54307;SDS011;40208;39.778;2.710;2023-07-09T09:55:01;25.52;;;8.30;;
54307;SDS011;40208;39.778;2.710;2023-07-09T09:57:55;22.25;;;7.93;;
54307;SDS011;40208;39.778;2.710;2023-07-09T10:00:46;24.50;;;7.35;;
54307;SDS011;40208;39.778;2.710;2023-07-09T10:03:35;23.63;;;7.40;;
54307;SDS011;40208;39.778;2.710;2023-07-09T10:06:41;24.35;;;8.15;;
54307;SDS011;40208;39.778;2.710;2023-07-09T10:20:25;27.10;;;8.15;;
54307;SDS011;40208;39.778;2.710;2023-07-09T10:32:23;24.83;;;8.85;;
54307;SDS011;40208;39.778;2.710;2023-07-09T10:36:03;23.80;;;8.75;;
54307;SDS011;40208;39.778;2.710;2023-07-09T10:39:33;28.17;;;8.52;;
54307;SDS011;40208;39.778;2.710;2023-07-09T10:42:29;28.05;;;8.32;;
54307;SDS011;40208;39.778;2.710;2023-07-09T10:45:30;23.40;;;8.10;;
54307;SDS011;40208;39.778;2.710;2023-07-09T10:51:37;24.80;;;7.13;;
54307;SDS011;40208;39.778;2.710;2023-07-09T10:54:45;25.55;;;7.40;;
54307;SDS011;40208;39.778;2.710;2023-07-09T10:57:53;22.35;;;7.07;;
54307;SDS011;40208;39.778;2.710;2023-07-09T11:00:43;22.42;;;7.22;;
54307;SDS011;40208;39.778;2.710;2023-07-09T11:03:37;23.70;;;7.15;;
54307;SDS011;40208;39.778;2.710;2023-07-09T11:09:32;20.85;;;7.00;;
54307;SDS011;40208;39.778;2.710;2023-07-09T11:12:29;20.40;;;6.97;;
54307;SDS011;40208;39.778;2.710;2023-07-09T11:15:34;30.40;;;6.32;;
54307;SDS011;40208;39.778;2.710;2023-07-09T11:18:32;22.63;;;7.13;;
54307;SDS011;40208;39.778;2.710;2023-07-09T11:21:18;23.70;;;6.70;;
54307;SDS011;40208;39.778;2.710;2023-07-09T11:24:03;18.13;;;7.20;;
54307;SDS011;40208;39.778;2.710;2023-07-09T11:26:50;30.05;;;7.70;;
54307;SDS011;40208;39.778;2.710;2023-07-09T11:29:43;19.65;;;6.55;;
54307;SDS011;40208;39.778;2.710;2023-07-09T11:32:31;20.95;;;6.43;;
54307;SDS011;40208;39.778;2.710;2023-07-09T11:35:26;24.08;;;6.05;;
54307;SDS011;40208;39.778;2.710;2023-07-09T11:38:17;24.42;;;6.63;;
54307;SDS011;40208;39.778;2.710;2023-07-09T11:44:27;22.90;;;6.72;;
54307;SDS011;40208;39.778;2.710;2023-07-09T11:47:24;19.08;;;5.95;;
54307;SDS011;40208;39.778;2.710;2023-07-09T11:50:20;23.13;;;7.32;;
54307;SDS011;40208;39.778;2.710;2023-07-09T11:56:26;19.67;;;6.50;;
54307;SDS011;40208;39.778;2.710;2023-07-09T11:59:12;24.67;;;6.50;;
54307;SDS011;40208;39.778;2.710;2023-07-09T12:01:57;22.08;;;6.43;;
54307;SDS011;40208;39.778;2.710;2023-07-09T12:04:47;17.08;;;6.95;;
54307;SDS011;40208;39.778;2.710;2023-07-09T12:07:34;19.92;;;6.63;;
54307;SDS011;40208;39.778;2.710;2023-07-09T12:10:21;23.63;;;8.02;;
54307;SDS011;40208;39.778;2.710;2023-07-09T12:13:08;26.35;;;7.00;;
54307;SDS011;40208;39.778;2.710;2023-07-09T12:15:55;20.95;;;7.20;;
54307;SDS011;40208;39.778;2.710;2023-07-09T12:18:40;18.17;;;6.43;;
54307;SDS011;40208;39.778;2.710;2023-07-09T12:21:25;23.00;;;6.70;;
54307;SDS011;40208;39.778;2.710;2023-07-09T12:24:30;24.13;;;6.65;;
54307;SDS011;40208;39.778;2.710;2023-07-09T12:27:25;17.35;;;6.90;;
54307;SDS011;40208;39.778;2.710;2023-07-09T12:30:12;21.17;;;6.63;;
54307;SDS011;40208;39.778;2.710;2023-07-09T12:32:57;27.55;;;6.97;;
54307;SDS011;40208;39.778;2.710;2023-07-09T12:35:42;31.40;;;8.75;;
54307;SDS011;40208;39.778;2.710;2023-07-09T12:38:28;23.48;;;7.88;;
54307;SDS011;40208;39.778;2.710;2023-07-09T12:41:24;26.52;;;8.30;;
54307;SDS011;40208;39.778;2.710;2023-07-09T12:47:03;26.95;;;8.82;;
54307;SDS011;40208;39.778;2.710;2023-07-09T12:49:49;29.65;;;7.10;;
54307;SDS011;40208;39.778;2.710;2023-07-09T12:52:35;51.45;;;12.38;;
54307;SDS011;40208;39.778;2.710;2023-07-09T12:55:36;23.52;;;7.72;;
54307;SDS011;40208;39.778;2.710;2023-07-09T12:58:25;14.98;;;6.32;;
54307;SDS011;40208;39.778;2.710;2023-07-09T13:01:16;20.35;;;6.00;;
54307;SDS011;40208;39.778;2.710;2023-07-09T13:04:01;18.90;;;5.97;;
54307;SDS011;40208;39.778;2.710;2023-07-09T13:06:46;21.75;;;6.20;;
54307;SDS011;40208;39.778;2.710;2023-07-09T13:09:31;22.98;;;5.72;;
54307;SDS011;40208;39.778;2.710;2023-07-09T13:12:16;22.95;;;5.80;;
54307;SDS011;40208;39.778;2.710;2023-07-09T13:15:01;21.40;;;6.03;;
54307;SDS011;40208;39.778;2.710;2023-07-09T13:17:47;24.23;;;6.57;;
54307;SDS011;40208;39.778;2.710;2023-07-09T13:20:33;20.60;;;6.18;;
54307;SDS011;40208;39.778;2.710;2023-07-09T13:26:14;17.55;;;5.93;;
54307;SDS011;40208;39.778;2.710;2023-07-09T13:29:00;15.05;;;6.13;;
54307;SDS011;40208;39.778;2.710;2023-07-09T13:31:46;16.38;;;6.63;;
54307;SDS011;40208;39.778;2.710;2023-07-09T13:34:32;23.20;;;6.93;;
54307;SDS011;40208;39.778;2.710;2023-07-09T13:37:18;22.30;;;7.07;;
54307;SDS011;40208;39.778;2.710;2023-07-09T13:40:02;24.25;;;6.47;;
54307;SDS011;40208;39.778;2.710;2023-07-09T13:42:48;24.10;;;7.30;;
54307;SDS011;40208;39.778;2.710;2023-07-09T13:45:33;17.80;;;5.93;;
54307;SDS011;40208;39.778;2.710;2023-07-09T13:48:19;18.42;;;5.85;;
54307;SDS011;40208;39.778;2.710;2023-07-09T13:51:15;22.55;;;6.03;;
54307;SDS011;40208;39.778;2.710;2023-07-09T13:54:01;26.70;;;5.78;;
54307;SDS011;40208;39.778;2.710;2023-07-09T13:56:50;19.10;;;5.85;;
54307;SDS011;40208;39.778;2.710;2023-07-09T13:59:35;23.25;;;6.63;;
54307;SDS011;40208;39.778;2.710;2023-07-09T14:02:25;20.95;;;5.57;;
54307;SDS011;40208;39.778;2.710;2023-07-09T14:05:16;23.77;;;6.22;;
54307;SDS011;40208;39.778;2.710;2023-07-09T14:08:01;28.45;;;5.97;;
54307;SDS011;40208;39.778;2.710;2023-07-09T14:10:46;18.20;;;5.78;;
54307;SDS011;40208;39.778;2.710;2023-07-09T14:13:34;19.98;;;5.95;;
54307;SDS011;40208;39.778;2.710;2023-07-09T14:16:19;22.50;;;6.22;;
54307;SDS011;40208;39.778;2.710;2023-07-09T14:19:08;27.02;;;6.13;;
54307;SDS011;40208;39.778;2.710;2023-07-09T14:21:57;16.40;;;5.85;;
54307;SDS011;40208;39.778;2.710;2023-07-09T14:24:42;19.80;;;5.72;;
54307;SDS011;40208;39.778;2.710;2023-07-09T14:27:27;22.17;;;5.45;;
54307;SDS011;40208;39.778;2.710;2023-07-09T14:30:17;17.50;;;5.68;;
54307;SDS011;40208;39.778;2.710;2023-07-09T14:33:04;22.17;;;6.22;;
54307;SDS011;40208;39.778;2.710;2023-07-09T14:35:53;19.55;;;6.00;;
54307;SDS011;40208;39.778;2.710;2023-07-09T14:38:38;16.85;;;5.60;;
54307;SDS011;40208;39.778;2.710;2023-07-09T14:41:24;14.52;;;5.45;;
54307;SDS011;40208;39.778;2.710;2023-07-09T14:44:22;20.27;;;6.07;;
54307;SDS011;40208;39.778;2.710;2023-07-09T14:47:16;16.42;;;5.65;;
54307;SDS011;40208;39.778;2.710;2023-07-09T14:50:03;18.50;;;5.70;;
54307;SDS011;40208;39.778;2.710;2023-07-09T14:52:48;24.27;;;6.40;;
54307;SDS011;40208;39.778;2.710;2023-07-09T14:55:33;20.95;;;6.05;;
54307;SDS011;40208;39.778;2.710;2023-07-09T14:58:22;18.77;;;5.75;;
54307;SDS011;40208;39.778;2.710;2023-07-09T15:01:13;16.38;;;5.25;;
54307;SDS011;40208;39.778;2.710;2023-07-09T15:03:59;17.55;;;6.13;;
54307;SDS011;40208;39.778;2.710;2023-07-09T15:06:44;18.10;;;5.28;;
54307;SDS011;40208;39.778;2.710;2023-07-09T15:09:28;22.92;;;6.50;;
54307;SDS011;40208;39.778;2.710;2023-07-09T15:12:17;19.02;;;5.72;;
54307;SDS011;40208;39.778;2.710;2023-07-09T15:18:00;17.70;;;5.95;;
54307;SDS011;40208;39.778;2.710;2023-07-09T15:20:57;19.13;;;5.68;;
54307;SDS011;40208;39.778;2.710;2023-07-09T15:23:44;20.80;;;5.57;;
54307;SDS011;40208;39.778;2.710;2023-07-09T15:26:29;18.50;;;5.85;;
54307;SDS011;40208;39.778;2.710;2023-07-09T15:29:14;19.92;;;5.75;;
54307;SDS011;40208;39.778;2.710;2023-07-09T15:32:00;21.23;;;6.95;;
54307;SDS011;40208;39.778;2.710;2023-07-09T15:34:44;22.92;;;6.63;;
54307;SDS011;40208;39.778;2.710;2023-07-09T15:37:29;32.22;;;6.43;;
54307;SDS011;40208;39.778;2.710;2023-07-09T15:43:07;17.30;;;5.88;;
54307;SDS011;40208;39.778;2.710;2023-07-09T15:45:54;16.75;;;5.25;;
54307;SDS011;40208;39.778;2.710;2023-07-09T15:48:41;20.30;;;5.47;;
54307;SDS011;40208;39.778;2.710;2023-07-09T15:51:29;16.70;;;5.10;;
54307;SDS011;40208;39.778;2.710;2023-07-09T15:54:15;20.52;;;5.43;;
54307;SDS011;40208;39.778;2.710;2023-07-09T15:57:01;24.38;;;5.50;;
54307;SDS011;40208;39.778;2.710;2023-07-09T15:59:47;20.00;;;5.72;;
54307;SDS011;40208;39.778;2.710;2023-07-09T16:02:31;19.27;;;5.30;;
54307;SDS011;40208;39.778;2.710;2023-07-09T16:05:19;19.05;;;5.45;;
54307;SDS011;40208;39.778;2.710;2023-07-09T16:08:09;22.60;;;5.90;;
54307;SDS011;40208;39.778;2.710;2023-07-09T16:10:54;14.23;;;5.18;;
54307;SDS011;40208;39.778;2.710;2023-07-09T16:13:39;16.23;;;5.60;;
54307;SDS011;40208;39.778;2.710;2023-07-09T16:16:24;26.63;;;6.00;;
54307;SDS011;40208;39.778;2.710;2023-07-09T16:19:10;20.13;;;6.13;;
54307;SDS011;40208;39.778;2.710;2023-07-09T16:21:56;18.75;;;5.63;;
54307;SDS011;40208;39.778;2.710;2023-07-09T16:24:43;20.45;;;5.25;;
54307;SDS011;40208;39.778;2.710;2023-07-09T16:27:28;21.15;;;5.55;;
54307;SDS011;40208;39.778;2.710;2023-07-09T16:30:14;15.55;;;5.43;;
54307;SDS011;40208;39.778;2.710;2023-07-09T16:33:03;22.55;;;5.78;;
54307;SDS011;40208;39.778;2.710;2023-07-09T16:35:48;23.00;;;5.95;;
54307;SDS011;40208;39.778;2.710;2023-07-09T16:38:36;27.42;;;6.30;;
54307;SDS011;40208;39.778;2.710;2023-07-09T16:41:20;16.80;;;5.60;;
54307;SDS011;40208;39.778;2.710;2023-07-09T16:44:08;22.88;;;6.10;;
54307;SDS011;40208;39.778;2.710;2023-07-09T16:49:40;15.23;;;5.65;;
54307;SDS011;40208;39.778;2.710;2023-07-09T16:52:28;29.57;;;6.60;;
54307;SDS011;40208;39.778;2.710;2023-07-09T16:55:17;20.27;;;5.13;;
54307;SDS011;40208;39.778;2.710;2023-07-09T16:58:04;16.33;;;5.47;;
54307;SDS011;40208;39.778;2.710;2023-07-09T17:00:49;23.85;;;6.05;;
54307;SDS011;40208;39.778;2.710;2023-07-09T17:03:34;20.55;;;5.80;;
54307;SDS011;40208;39.778;2.710;2023-07-09T17:06:19;16.48;;;5.50;;
54307;SDS011;40208;39.778;2.710;2023-07-09T17:09:03;20.15;;;5.20;;
54307;SDS011;40208;39.778;2.710;2023-07-09T17:11:52;21.67;;;5.70;;
54307;SDS011;40208;39.778;2.710;2023-07-09T17:14:43;18.00;;;5.57;;
54307;SDS011;40208;39.778;2.710;2023-07-09T17:17:27;18.20;;;4.75;;
54307;SDS011;40208;39.778;2.710;2023-07-09T17:20:13;21.15;;;6.30;;
54307;SDS011;40208;39.778;2.710;2023-07-09T17:22:59;19.48;;;5.25;;
54307;SDS011;40208;39.778;2.710;2023-07-09T17:25:44;16.63;;;5.50;;
54307;SDS011;40208;39.778;2.710;2023-07-09T17:28:29;22.17;;;6.38;;
54307;SDS011;40208;39.778;2.710;2023-07-09T17:31:15;22.05;;;6.07;;
54307;SDS011;40208;39.778;2.710;2023-07-09T17:34:00;19.38;;;5.32;;
54307;SDS011;40208;39.778;2.710;2023-07-09T17:36:45;23.80;;;6.47;;
54307;SDS011;40208;39.778;2.710;2023-07-09T17:39:31;22.17;;;5.72;;
54307;SDS011;40208;39.778;2.710;2023-07-09T17:42:15;19.80;;;5.32;;
54307;SDS011;40208;39.778;2.710;2023-07-09T17:45:01;18.42;;;5.38;;
54307;SDS011;40208;39.778;2.710;2023-07-09T17:47:46;19.48;;;5.10;;
54307;SDS011;40208;39.778;2.710;2023-07-09T17:50:31;22.85;;;5.82;;
54307;SDS011;40208;39.778;2.710;2023-07-09T17:53:17;17.58;;;5.82;;
54307;SDS011;40208;39.778;2.710;2023-07-09T17:56:20;15.73;;;4.90;;